createdAt,value
2023-02-27T00:01:40.572Z,102092.88
2023-02-27T00:04:07.176Z,102086.69
2023-02-27T00:06:33.635Z,102094.34
2023-02-27T00:09:00.298Z,102090.75
2023-02-27T00:11:27.100Z,102094.78
2023-02-27T00:13:53.810Z,102097.78
2023-02-27T00:16:20.275Z,102098.19
2023-02-27T00:18:46.780Z,102110.22
2023-02-27T00:21:13.196Z,102107.50
2023-02-27T00:23:39.638Z,102103.72
2023-02-27T00:26:06.037Z,102104.03
2023-02-27T00:28:32.485Z,102120.06
2023-02-27T00:30:58.985Z,102112.44
2023-02-27T00:33:25.532Z,102113.69
2023-02-27T00:35:59.621Z,102116.38
2023-02-27T00:38:26.353Z,102116.22
2023-02-27T00:40:52.779Z,102118.19
2023-02-27T00:43:20.403Z,102110.84
2023-02-27T00:45:48.163Z,102117.28
2023-02-27T00:48:15.277Z,102113.28
2023-02-27T00:50:41.749Z,102108.50
2023-02-27T00:53:08.208Z,102102.81
2023-02-27T00:55:34.679Z,102107.44
2023-02-27T00:58:01.095Z,102105.41
2023-02-27T01:00:27.662Z,102108.41
2023-02-27T01:02:54.178Z,102098.50
2023-02-27T01:05:21.096Z,102101.69
2023-02-27T01:07:47.500Z,102096.00
2023-02-27T01:10:13.948Z,102094.94
2023-02-27T01:12:40.841Z,102095.09
2023-02-27T01:15:08.586Z,102092.88
2023-02-27T01:17:35.255Z,102093.16
2023-02-27T01:20:01.786Z,102083.25
2023-02-27T01:22:28.182Z,102084.31
2023-02-27T01:24:54.596Z,102089.88
2023-02-27T01:27:20.989Z,102088.41
2023-02-27T01:29:47.405Z,102087.78
2023-02-27T01:32:13.929Z,102083.75
2023-02-27T01:34:40.395Z,102074.72
2023-02-27T01:37:06.822Z,102082.38
2023-02-27T01:39:33.290Z,102070.84
2023-02-27T01:42:00.918Z,102070.22
2023-02-27T01:44:29.113Z,102066.19
2023-02-27T01:46:55.715Z,102071.56
2023-02-27T01:49:26.062Z,102075.50
2023-02-27T01:51:56.497Z,102068.13
2023-02-27T01:54:25.519Z,102063.19
2023-02-27T01:56:51.992Z,102070.38
2023-02-27T01:59:18.800Z,102068.16
2023-02-27T02:01:45.434Z,102066.78
2023-02-27T02:04:16.875Z,102058.69
2023-02-27T02:06:48.022Z,102061.53
2023-02-27T02:09:17.222Z,102065.31
2023-02-27T02:11:44.184Z,102070.69
2023-02-27T02:14:10.774Z,102067.38
2023-02-27T02:17:05.984Z,102064.22
2023-02-27T02:19:45.544Z,102071.44
2023-02-27T02:22:36.474Z,102073.41
2023-02-27T02:25:14.937Z,102075.22
2023-02-27T02:28:05.801Z,102071.91
2023-02-27T02:30:57.172Z,102081.50
2023-02-27T02:33:59.401Z,102082.41
2023-02-27T02:36:34.820Z,102087.66
2023-02-27T02:39:23.980Z,102084.50
2023-02-27T02:42:22.554Z,102089.00
2023-02-27T02:44:58.995Z,102090.81
2023-02-27T02:47:52.884Z,102083.88
2023-02-27T02:50:27.258Z,102090.81
2023-02-27T02:53:10.377Z,102086.63
2023-02-27T02:55:49.417Z,102085.25
2023-02-27T02:58:22.679Z,102087.34
2023-02-27T03:00:54.572Z,102088.38
2023-02-27T03:03:34.705Z,102091.69
2023-02-27T03:06:05.722Z,102095.28
2023-02-27T03:08:34.766Z,102097.41
2023-02-27T03:11:03.804Z,102093.06
2023-02-27T03:13:40.497Z,102094.09
2023-02-27T03:16:14.597Z,102099.22
2023-02-27T03:18:45.413Z,102095.00
2023-02-27T03:21:15.131Z,102096.66
2023-02-27T03:23:45.800Z,102095.63
2023-02-27T03:26:16.186Z,102090.50
2023-02-27T03:29:14.830Z,102100.41
2023-02-27T03:31:47.386Z,102103.72
2023-02-27T03:34:34.559Z,102094.09
2023-02-27T03:37:06.874Z,102100.59
2023-02-27T03:39:45.429Z,102097.72
2023-02-27T03:42:26.588Z,102102.53
2023-02-27T03:44:59.800Z,102096.84
2023-02-27T03:47:26.746Z,102106.91
2023-02-27T03:49:53.196Z,102098.94
2023-02-27T03:52:20.908Z,102098.81
2023-02-27T03:54:53.362Z,102093.06
2023-02-27T03:57:19.850Z,102095.34
2023-02-27T03:59:46.292Z,102100.16
2023-02-27T04:02:12.709Z,102095.78
2023-02-27T04:04:39.323Z,102099.53
2023-02-27T04:07:35.016Z,102104.63
2023-02-27T04:10:14.618Z,102107.50
2023-02-27T04:12:45.822Z,102103.16
2023-02-27T04:15:14.414Z,102113.78
2023-02-27T04:18:01.747Z,102118.75
2023-02-27T04:20:36.855Z,102117.53
2023-02-27T04:23:08.650Z,102123.41
2023-02-27T04:25:43.709Z,102130.00
2023-02-27T04:28:19.487Z,102129.84
2023-02-27T04:31:16.893Z,102134.81
2023-02-27T04:33:49.497Z,102136.13
2023-02-27T04:36:27.096Z,102137.34
2023-02-27T04:39:05.335Z,102136.56
2023-02-27T04:41:37.588Z,102148.69
2023-02-27T04:44:05.580Z,102147.66
2023-02-27T04:46:33.093Z,102149.91
2023-02-27T04:49:03.064Z,102151.81
2023-02-27T04:51:35.254Z,102162.75
2023-02-27T04:54:09.944Z,102159.91
2023-02-27T04:56:47.495Z,102157.97
2023-02-27T04:59:18.122Z,102152.53
2023-02-27T05:01:49.816Z,102152.22
2023-02-27T05:04:19.290Z,102161.34
2023-02-27T05:06:46.079Z,102155.81
2023-02-27T05:09:22.550Z,102158.94
2023-02-27T05:11:56.953Z,102159.66
2023-02-27T05:14:30.535Z,102164.44
2023-02-27T05:17:03.962Z,102162.34
2023-02-27T05:19:32.434Z,102162.94
2023-02-27T05:22:26.253Z,102168.28
2023-02-27T05:25:01.659Z,102173.06
2023-02-27T05:27:33.772Z,102166.78
2023-02-27T05:30:18.232Z,102173.19
2023-02-27T05:32:58.230Z,102175.59
2023-02-27T05:35:32.019Z,102175.41
2023-02-27T05:38:06.651Z,102176.00
2023-02-27T05:40:37.448Z,102176.59
2023-02-27T05:43:07.928Z,102178.22
2023-02-27T05:45:37.304Z,102172.22
2023-02-27T05:48:09.005Z,102178.22
2023-02-27T05:50:38.108Z,102174.03
2023-02-27T05:53:08.355Z,102173.88
2023-02-27T05:55:50.061Z,102178.97
2023-02-27T05:58:20.814Z,102184.97
2023-02-27T06:01:03.754Z,102187.53
2023-02-27T06:03:32.224Z,102183.19
2023-02-27T06:06:00.334Z,102185.56
2023-02-27T06:08:27.326Z,102190.66
2023-02-27T06:10:55.199Z,102191.56
2023-02-27T06:13:22.633Z,102196.66
2023-02-27T06:15:49.160Z,102202.06
2023-02-27T06:18:16.532Z,102204.63
2023-02-27T06:20:44.036Z,102203.88
2023-02-27T06:23:11.006Z,102211.69
2023-02-27T06:25:37.937Z,102208.38
2023-02-27T06:28:04.776Z,102210.69
2023-02-27T06:30:31.646Z,102201.56
2023-02-27T06:32:58.149Z,102198.25
2023-02-27T06:35:24.611Z,102209.66
2023-02-27T06:37:51.021Z,102217.81
2023-02-27T06:40:19.020Z,102214.84
2023-02-27T06:42:45.448Z,102220.56
2023-02-27T06:45:12.864Z,102221.81
2023-02-27T06:47:40.084Z,102224.81
2023-02-27T06:50:11.160Z,102230.69
2023-02-27T06:52:38.735Z,102231.78
2023-02-27T06:55:06.421Z,102229.53
2023-02-27T06:57:32.961Z,102235.09
2023-02-27T06:59:59.364Z,102229.25
2023-02-27T07:02:25.859Z,102241.41
2023-02-27T07:04:52.912Z,102249.56
2023-02-27T07:07:33.797Z,102248.38
2023-02-27T07:10:05.039Z,102254.69
2023-02-27T07:12:31.467Z,102256.22
2023-02-27T07:14:57.912Z,102250.53
2023-02-27T07:17:24.343Z,102255.94
2023-02-27T07:19:50.777Z,102254.44
2023-02-27T07:22:17.211Z,102264.53
2023-02-27T07:24:43.627Z,102273.41
2023-02-27T07:27:10.040Z,102271.91
2023-02-27T07:29:36.570Z,102278.41
2023-02-27T07:32:03.108Z,102286.81
2023-02-27T07:34:29.661Z,102282.22
2023-02-27T07:36:56.090Z,102279.22
2023-02-27T07:39:22.534Z,102284.91
2023-02-27T07:41:48.947Z,102291.25
2023-02-27T07:44:15.358Z,102302.97
2023-02-27T07:46:41.889Z,102299.69
2023-02-27T07:49:08.307Z,102308.69
2023-02-27T07:51:34.797Z,102292.19
2023-02-27T07:54:01.198Z,102297.75
2023-02-27T07:56:28.038Z,102286.63
2023-02-27T07:58:54.702Z,102290.88
2023-02-27T08:01:21.117Z,102307.56
2023-02-27T08:03:47.813Z,102305.28
2023-02-27T08:06:14.204Z,102306.03
2023-02-27T08:08:40.612Z,102302.31
2023-02-27T08:11:07.021Z,102305.47
2023-02-27T08:13:59.982Z,102297.34
2023-02-27T08:16:19.843Z,102287.72
2023-02-27T08:18:46.253Z,102289.53
2023-02-27T08:21:12.647Z,102291.03
2023-02-27T08:23:39.349Z,102289.69
2023-02-27T08:26:06.059Z,102291.78
2023-02-27T08:28:32.500Z,102302.59
2023-02-27T08:30:58.960Z,102298.56
2023-02-27T08:33:25.633Z,102295.84
2023-02-27T08:35:54.317Z,102301.53
2023-02-27T08:38:20.940Z,102293.44
2023-02-27T08:40:47.399Z,102291.91
2023-02-27T08:43:13.823Z,102295.81
2023-02-27T08:45:40.273Z,102295.66
2023-02-27T08:48:07.014Z,102289.03
2023-02-27T08:50:33.446Z,102296.56
2023-02-27T08:52:59.876Z,102290.69
2023-02-27T08:55:26.308Z,102293.81
2023-02-27T08:57:52.787Z,102287.34
2023-02-27T09:00:19.693Z,102278.59
2023-02-27T09:02:46.172Z,102286.09
2023-02-27T09:05:12.618Z,102281.56
2023-02-27T09:07:39.085Z,102282.13
2023-02-27T09:10:07.244Z,102290.53
2023-02-27T09:12:33.710Z,102288.53
2023-02-27T09:15:00.152Z,102289.16
2023-02-27T09:17:26.581Z,102286.25
2023-02-27T09:19:52.992Z,102291.19
2023-02-27T09:22:19.928Z,102298.69
2023-02-27T09:24:46.362Z,102287.38
2023-02-27T09:27:12.772Z,102293.78
2023-02-27T09:29:39.227Z,102287.09
2023-02-27T09:32:05.899Z,102284.13
2023-02-27T09:34:32.326Z,102298.84
2023-02-27T09:36:59.887Z,102293.22
2023-02-27T09:39:26.735Z,102288.00
2023-02-27T09:42:01.707Z,102298.72
2023-02-27T09:44:46.295Z,102301.69
2023-02-27T09:47:20.352Z,102310.97
2023-02-27T09:50:03.005Z,102298.03
2023-02-27T09:52:31.684Z,102300.34
2023-02-27T09:54:58.315Z,102301.19
2023-02-27T09:57:29.866Z,102311.53
2023-02-27T10:00:16.596Z,102316.66
2023-02-27T10:02:55.914Z,102314.81
2023-02-27T10:06:07.231Z,102324.50
2023-02-27T10:08:59.821Z,102322.47
2023-02-27T10:11:35.734Z,102317.59
2023-02-27T10:14:12.890Z,102319.81
2023-02-27T10:16:39.549Z,102305.97
2023-02-27T10:19:14.148Z,102308.06
2023-02-27T10:21:44.436Z,102311.66
2023-02-27T10:24:26.417Z,102309.22
2023-02-27T10:26:54.579Z,102314.88
2023-02-27T10:29:29.367Z,102317.28
2023-02-27T10:32:06.262Z,102312.91
2023-02-27T10:34:33.682Z,102313.09
2023-02-27T10:37:02.261Z,102306.06
2023-02-27T10:39:29.867Z,102313.53
2023-02-27T10:42:02.173Z,102316.66
2023-02-27T10:44:28.613Z,102306.13
2023-02-27T10:46:55.015Z,102310.41
2023-02-27T10:49:22.240Z,102306.94
2023-02-27T10:52:14.134Z,102302.59
2023-02-27T10:54:41.678Z,102310.69
2023-02-27T10:57:21.067Z,102308.75
2023-02-27T10:59:59.013Z,102305.94
2023-02-27T11:02:32.581Z,102298.34
2023-02-27T11:04:59.633Z,102312.09
2023-02-27T11:07:28.857Z,102310.84
2023-02-27T11:10:16.955Z,102322.28
2023-02-27T11:12:57.412Z,102304.16
2023-02-27T11:15:26.327Z,102312.91
2023-02-27T11:17:53.788Z,102305.84
2023-02-27T11:20:37.778Z,102302.63
2023-02-27T11:23:15.644Z,102301.97
2023-02-27T11:25:42.725Z,102298.75
2023-02-27T11:28:14.632Z,102294.13
2023-02-27T11:30:42.933Z,102296.72
2023-02-27T11:33:20.036Z,102290.28
2023-02-27T11:35:51.679Z,102297.09
2023-02-27T11:38:27.409Z,102290.78
2023-02-27T11:41:08.307Z,102291.41
2023-02-27T11:43:49.931Z,102288.09
2023-02-27T11:46:45.881Z,102279.63
2023-02-27T11:49:35.324Z,102283.59
2023-02-27T11:52:09.301Z,102281.66
2023-02-27T11:54:42.020Z,102288.34
2023-02-27T11:57:23.132Z,102286.44
2023-02-27T11:59:58.371Z,102284.34
2023-02-27T12:02:33.283Z,102284.75
2023-02-27T12:05:15.229Z,102284.34
2023-02-27T12:07:46.454Z,102286.94
2023-02-27T12:11:01.785Z,102286.31
2023-02-27T12:13:38.640Z,102275.38
2023-02-27T12:17:02.382Z,102273.81
2023-02-27T12:19:37.633Z,102265.31
2023-02-27T12:22:17.225Z,102266.69
2023-02-27T12:24:52.780Z,102266.81
2023-02-27T12:27:26.030Z,102260.75
2023-02-27T12:29:56.416Z,102257.94
2023-02-27T12:32:43.524Z,102254.03
2023-02-27T12:35:17.433Z,102260.38
2023-02-27T12:37:44.170Z,102258.69
2023-02-27T12:40:14.977Z,102258.56
2023-02-27T12:43:05.417Z,102261.94
2023-02-27T12:45:44.021Z,102268.72
2023-02-27T12:48:27.380Z,102264.50
2023-02-27T12:50:59.782Z,102267.81
2023-02-27T12:53:47.326Z,102269.25
2023-02-27T12:56:19.574Z,102271.47
2023-02-27T12:59:09.305Z,102271.47
2023-02-27T13:02:02.337Z,102277.63
2023-02-27T13:04:45.489Z,102274.16
2023-02-27T13:07:24.112Z,102279.31
2023-02-27T13:09:54.804Z,102274.94
2023-02-27T13:12:41.807Z,102280.31
2023-02-27T13:15:34.034Z,102277.88
2023-02-27T13:18:07.990Z,102275.31
2023-02-27T13:20:54.007Z,102271.44
2023-02-27T13:23:35.174Z,102283.66
2023-02-27T13:26:07.541Z,102279.16
2023-02-27T13:28:34.522Z,102278.63
2023-02-27T13:31:19.956Z,102281.88
2023-02-27T13:34:04.784Z,102283.41
2023-02-27T13:36:39.136Z,102282.63
2023-02-27T13:39:56.202Z,102286.25
2023-02-27T13:42:25.619Z,102290.88
2023-02-27T13:45:00.621Z,102288.94
2023-02-27T13:47:30.033Z,102285.03
2023-02-27T13:50:01.523Z,102283.09
2023-02-27T13:52:32.705Z,102284.75
2023-02-27T13:55:06.225Z,102285.00
2023-02-27T13:57:38.265Z,102284.44
2023-02-27T14:00:16.627Z,102293.84
2023-02-27T14:02:58.253Z,102285.22
2023-02-27T14:05:29.664Z,102287.91
2023-02-27T14:08:00.323Z,102288.34
2023-02-27T14:10:29.279Z,102288.34
2023-02-27T14:12:57.578Z,102289.25
2023-02-27T14:15:23.908Z,102292.31
2023-02-27T14:18:09.656Z,102287.06
2023-02-27T14:20:38.873Z,102280.88
2023-02-27T14:23:22.082Z,102287.59
2023-02-27T14:25:55.205Z,102278.31
2023-02-27T14:28:26.262Z,102281.25
2023-02-27T14:31:05.735Z,102277.03
2023-02-27T14:33:46.706Z,102280.84
2023-02-27T14:36:24.960Z,102283.13
2023-02-27T14:38:57.508Z,102291.75
2023-02-27T14:41:54.749Z,102285.69
2023-02-27T14:44:28.572Z,102292.16
2023-02-27T14:46:56.235Z,102290.91
2023-02-27T14:49:30.764Z,102294.53
2023-02-27T14:51:57.646Z,102300.22
2023-02-27T14:54:26.071Z,102297.41
2023-02-27T14:56:54.666Z,102298.94
2023-02-27T14:59:24.069Z,102301.28
2023-02-27T15:01:51.217Z,102312.25
2023-02-27T15:04:20.385Z,102306.31
2023-02-27T15:06:49.326Z,102305.41
2023-02-27T15:09:34.630Z,102307.09
2023-02-27T15:12:04.516Z,102310.06
2023-02-27T15:14:34.656Z,102313.91
2023-02-27T15:17:01.138Z,102306.19
2023-02-27T15:19:29.685Z,102301.84
2023-02-27T15:22:02.321Z,102310.34
2023-02-27T15:24:40.654Z,102304.16
2023-02-27T15:27:21.167Z,102310.50
2023-02-27T15:29:52.133Z,102306.75
2023-02-27T15:32:33.926Z,102309.72
2023-02-27T15:35:03.780Z,102318.84
2023-02-27T15:37:32.392Z,102316.25
2023-02-27T15:40:00.397Z,102310.63
2023-02-27T15:42:34.988Z,102315.25
2023-02-27T15:45:02.769Z,102319.38
2023-02-27T15:47:31.372Z,102329.28
2023-02-27T15:50:11.854Z,102324.13
2023-02-27T15:52:44.570Z,102324.47
2023-02-27T15:55:16.819Z,102328.91
2023-02-27T15:57:56.489Z,102326.91
2023-02-27T16:00:30.600Z,102334.38
2023-02-27T16:02:57.959Z,102331.19
2023-02-27T16:05:34.968Z,102321.91
2023-02-27T16:08:05.777Z,102329.88
2023-02-27T16:10:37.853Z,102330.13
2023-02-27T16:13:40.059Z,102333.00
2023-02-27T16:16:23.348Z,102334.78
2023-02-27T16:18:58.233Z,102340.19
2023-02-27T16:21:31.102Z,102347.13
2023-02-27T16:24:18.232Z,102350.22
2023-02-27T16:26:50.344Z,102344.84
2023-02-27T16:29:21.823Z,102350.88
2023-02-27T16:31:50.995Z,102357.53
2023-02-27T16:34:42.687Z,102353.03
2023-02-27T16:37:20.400Z,102364.63
2023-02-27T16:39:46.944Z,102372.19
2023-02-27T16:42:13.354Z,102368.97
2023-02-27T16:44:39.766Z,102376.56
2023-02-27T16:47:06.160Z,102375.41
2023-02-27T16:49:33.642Z,102377.56
2023-02-27T16:52:01.815Z,102378.19
2023-02-27T16:54:28.244Z,102376.91
2023-02-27T16:56:54.674Z,102378.03
2023-02-27T16:59:32.442Z,102388.06
2023-02-27T17:02:00.466Z,102382.66
2023-02-27T17:04:28.224Z,102385.88
2023-02-27T17:06:56.045Z,102378.78
2023-02-27T17:09:22.755Z,102389.19
2023-02-27T17:11:49.405Z,102383.03
2023-02-27T17:14:16.245Z,102388.94
2023-02-27T17:16:42.677Z,102393.31
2023-02-27T17:19:09.122Z,102392.41
2023-02-27T17:21:35.737Z,102393.31
2023-02-27T17:24:02.260Z,102405.41
2023-02-27T17:26:29.169Z,102397.69
2023-02-27T17:28:56.425Z,102403.59
2023-02-27T17:31:24.040Z,102402.81
2023-02-27T17:33:51.300Z,102398.47
2023-02-27T17:36:18.222Z,102397.25
2023-02-27T17:38:44.725Z,102401.63
2023-02-27T17:41:12.792Z,102403.94
2023-02-27T17:43:41.416Z,102397.91
2023-02-27T17:46:09.364Z,102407.53
2023-02-27T17:48:37.421Z,102409.22
2023-02-27T17:51:08.612Z,102415.88
2023-02-27T17:53:35.620Z,102413.06
2023-02-27T17:56:02.893Z,102420.63
2023-02-27T17:58:29.338Z,102416.91
2023-02-27T18:00:55.990Z,102416.75
2023-02-27T18:03:22.422Z,102412.22
2023-02-27T18:05:52.219Z,102414.66
2023-02-27T18:08:19.388Z,102408.38
2023-02-27T18:10:49.454Z,102412.47
2023-02-27T18:13:16.649Z,102411.44
2023-02-27T18:15:43.564Z,102414.63
2023-02-27T18:18:11.090Z,102414.47
2023-02-27T18:20:37.515Z,102409.22
2023-02-27T18:23:04.146Z,102415.88
2023-02-27T18:25:30.562Z,102410.63
2023-02-27T18:27:57.129Z,102416.66
2023-02-27T18:30:24.139Z,102414.97
2023-02-27T18:32:50.565Z,102409.84
2023-02-27T18:35:16.975Z,102408.03
2023-02-27T18:37:43.458Z,102412.16
2023-02-27T18:40:11.877Z,102411.13
2023-02-27T18:42:38.342Z,102411.13
2023-02-27T18:45:05.321Z,102416.72
2023-02-27T18:47:31.729Z,102422.75
2023-02-27T18:49:58.529Z,102415.69
2023-02-27T18:52:25.255Z,102416.59
2023-02-27T18:54:51.679Z,102413.25
2023-02-27T18:57:18.165Z,102421.09
2023-02-27T18:59:46.521Z,102420.31
2023-02-27T19:02:14.631Z,102416.84
2023-02-27T19:04:41.101Z,102416.84
2023-02-27T19:07:08.459Z,102420.31
2023-02-27T19:09:34.887Z,102418.53
2023-02-27T19:12:01.395Z,102426.22
2023-02-27T19:14:27.854Z,102424.28
2023-02-27T19:16:56.005Z,102417.34
2023-02-27T19:19:22.742Z,102425.81
2023-02-27T19:21:49.151Z,102425.69
2023-02-27T19:24:16.772Z,102426.47
2023-02-27T19:26:43.205Z,102428.00
2023-02-27T19:29:09.655Z,102433.91
2023-02-27T19:31:36.121Z,102431.19
2023-02-27T19:34:02.933Z,102429.22
2023-02-27T19:36:30.717Z,102434.84
2023-02-27T19:38:57.823Z,102425.84
2023-02-27T19:41:25.322Z,102430.41
2023-02-27T19:43:52.072Z,102436.81
2023-02-27T19:46:25.140Z,102430.31
2023-02-27T19:48:53.215Z,102439.28
2023-02-27T19:51:21.067Z,102443.09
2023-02-27T19:53:50.380Z,102445.41
2023-02-27T19:56:19.484Z,102442.38
2023-02-27T19:58:46.726Z,102443.78
2023-02-27T20:01:13.177Z,102438.38
2023-02-27T20:03:43.835Z,102441.38
2023-02-27T20:06:21.799Z,102442.00
2023-02-27T20:08:48.207Z,102444.16
2023-02-27T20:11:17.099Z,102433.31
2023-02-27T20:13:44.395Z,102445.09
2023-02-27T20:16:13.543Z,102448.28
2023-02-27T20:18:41.714Z,102445.56
2023-02-27T20:21:17.741Z,102442.72
2023-02-27T20:23:45.389Z,102446.97
2023-02-27T20:26:21.740Z,102440.78
2023-02-27T20:28:49.479Z,102439.56
2023-02-27T20:31:18.817Z,102445.47
2023-02-27T20:33:46.329Z,102441.09
2023-02-27T20:36:13.475Z,102443.38
2023-02-27T20:38:40.445Z,102431.06
2023-02-27T20:41:08.494Z,102439.50
2023-02-27T20:43:37.564Z,102434.06
2023-02-27T20:46:05.534Z,102437.38
2023-02-27T20:48:32.235Z,102444.03
2023-02-27T20:51:10.903Z,102448.88
2023-02-27T20:53:38.796Z,102447.84
2023-02-27T20:56:06.381Z,102449.22
2023-02-27T20:58:32.834Z,102443.63
2023-02-27T21:00:59.574Z,102448.47
2023-02-27T21:03:26.352Z,102442.78
2023-02-27T21:05:54.041Z,102440.22
2023-02-27T21:08:20.473Z,102439.63
2023-02-27T21:10:50.948Z,102447.00
2023-02-27T21:13:21.097Z,102439.03
2023-02-27T21:15:47.533Z,102442.94
2023-02-27T21:18:14.206Z,102438.44
2023-02-27T21:20:42.406Z,102442.50
2023-02-27T21:23:09.805Z,102446.59
2023-02-27T21:25:45.378Z,102440.88
2023-02-27T21:28:11.901Z,102445.09
2023-02-27T21:30:38.330Z,102445.41
2023-02-27T21:33:06.584Z,102447.81
2023-02-27T21:35:33.485Z,102446.63
2023-02-27T21:37:59.938Z,102451.63
2023-02-27T21:40:26.416Z,102454.47
2023-02-27T21:42:52.997Z,102453.56
2023-02-27T21:45:20.270Z,102455.22
2023-02-27T21:47:46.685Z,102456.59
2023-02-27T21:50:18.114Z,102462.47
2023-02-27T21:52:44.566Z,102451.00
2023-02-27T21:55:11.983Z,102453.25
2023-02-27T21:57:39.215Z,102460.03
2023-02-27T22:00:08.174Z,102457.19
2023-02-27T22:02:34.692Z,102459.59
2023-02-27T22:05:01.129Z,102456.13
2023-02-27T22:07:27.540Z,102456.13
2023-02-27T22:09:53.949Z,102454.47
2023-02-27T22:12:21.928Z,102459.75
2023-02-27T22:14:48.568Z,102454.47
2023-02-27T22:17:15.038Z,102454.47
2023-02-27T22:19:41.452Z,102447.84
2023-02-27T22:22:07.899Z,102447.09
2023-02-27T22:24:34.789Z,102458.09
2023-02-27T22:27:01.280Z,102452.34
2023-02-27T22:29:27.685Z,102439.56
2023-02-27T22:31:54.250Z,102450.84
2023-02-27T22:34:20.753Z,102449.94
2023-02-27T22:36:52.652Z,102450.09
2023-02-27T22:39:19.729Z,102453.72
2023-02-27T22:41:46.239Z,102457.94
2023-02-27T22:44:14.194Z,102446.94
2023-02-27T22:46:43.403Z,102451.31
2023-02-27T22:49:18.383Z,102460.81
2023-02-27T22:51:44.902Z,102460.03
2023-02-27T22:54:13.168Z,102472.09
2023-02-27T22:56:39.664Z,102468.03
2023-02-27T22:59:06.297Z,102471.63
2023-02-27T23:01:34.250Z,102464.69
2023-02-27T23:04:03.371Z,102462.91
2023-02-27T23:06:33.221Z,102462.91
2023-02-27T23:09:00.314Z,102473.16
2023-02-27T23:11:27.286Z,102462.91
2023-02-27T23:13:53.875Z,102464.69
2023-02-27T23:16:20.378Z,102481.13
2023-02-27T23:18:52.154Z,102478.56
2023-02-27T23:21:21.259Z,102482.78
2023-02-27T23:23:48.185Z,102477.81
2023-02-27T23:26:15.129Z,102476.13
2023-02-27T23:28:41.768Z,102477.03
2023-02-27T23:31:08.671Z,102479.31
2023-02-27T23:33:35.227Z,102474.94
2023-02-27T23:36:02.026Z,102474.03
2023-02-27T23:38:28.500Z,102470.44
2023-02-27T23:40:55.073Z,102473.16
2023-02-27T23:43:21.838Z,102478.25
2023-02-27T23:45:48.441Z,102476.59
2023-02-27T23:48:14.909Z,102473.16
2023-02-27T23:50:45.708Z,102483.38
2023-02-27T23:53:13.579Z,102491.06
2023-02-27T23:55:40.736Z,102486.69
2023-02-27T23:58:09.341Z,102491.06
